Main page
METAR-TAF:

METAR-TAF

Airports :

Block Island State Airport

Block Island, Rhode Island, United States

latitude: 41-10N, longitude: 071-34W, elevation: 108 ft

Current weather observation

The report was made 23 minutes ago, at 17:56 UTC
Wind 26 mph from the West with gusts up to 38 mph
Temperature 43°F
Humidity 61%
Pressure 29.39 in. Hg
Visibility: 10 miles
Overcast at a height of 3900 ft

METAR: KBID 271756Z AUTO 26023G33KT 10SM OVC039 06/M01 A2939 RMK AO2 PK WND 25038/1705 SLP954 6//// T00611006 10094 20056 51014 PNO $

Time: 13:19 (18:19 UTC)


TAF: missing

Weather observations and forecasts of more than 4000 airports (METAR and TAF reports).

The available stations are represented by yellow and red dots on the map.

Hover mouse over dot to see the name of the station.

Then click to see weather observations and forecasts.

To change the map : click on the green buttons with a black cross to zoom in, on the green button with a dash to zoom out, or on the green arrows for adjacent maps.


METAR-TAF: